sensor_id;sensor_type;location;lat;lon;timestamp;P1;durP1;ratioP1;P2;durP2;ratioP2
73168;SDS011;61379;59.732;30.468;2023-03-20T00:02:16;10.75;;;9.65;;
73168;SDS011;61379;59.732;30.468;2023-03-20T00:04:43;12.77;;;9.43;;
73168;SDS011;61379;59.732;30.468;2023-03-20T00:07:11;13.07;;;9.77;;
73168;SDS011;61379;59.732;30.468;2023-03-20T00:09:38;11.30;;;9.05;;
73168;SDS011;61379;59.732;30.468;2023-03-20T00:12:04;11.20;;;9.75;;
73168;SDS011;61379;59.732;30.468;2023-03-20T00:14:32;10.98;;;9.05;;
73168;SDS011;61379;59.732;30.468;2023-03-20T00:16:59;11.85;;;9.65;;
73168;SDS011;61379;59.732;30.468;2023-03-20T00:19:27;10.90;;;9.80;;
73168;SDS011;61379;59.732;30.468;2023-03-20T00:21:55;14.95;;;9.70;;
73168;SDS011;61379;59.732;30.468;2023-03-20T00:24:23;13.50;;;9.82;;
73168;SDS011;61379;59.732;30.468;2023-03-20T00:26:51;11.50;;;8.90;;
73168;SDS011;61379;59.732;30.468;2023-03-20T00:29:19;16.58;;;10.20;;
73168;SDS011;61379;59.732;30.468;2023-03-20T00:31:46;13.48;;;10.68;;
73168;SDS011;61379;59.732;30.468;2023-03-20T00:34:14;11.32;;;9.88;;
73168;SDS011;61379;59.732;30.468;2023-03-20T00:36:41;12.30;;;10.23;;
73168;SDS011;61379;59.732;30.468;2023-03-20T00:39:08;15.32;;;10.27;;
73168;SDS011;61379;59.732;30.468;2023-03-20T00:41:38;12.50;;;9.82;;
73168;SDS011;61379;59.732;30.468;2023-03-20T00:44:11;14.00;;;9.68;;
73168;SDS011;61379;59.732;30.468;2023-03-20T00:46:39;11.38;;;9.57;;
73168;SDS011;61379;59.732;30.468;2023-03-20T00:49:07;12.55;;;10.55;;
73168;SDS011;61379;59.732;30.468;2023-03-20T00:51:34;13.23;;;10.15;;
73168;SDS011;61379;59.732;30.468;2023-03-20T00:54:04;15.18;;;10.45;;
73168;SDS011;61379;59.732;30.468;2023-03-20T00:56:31;10.82;;;9.70;;
73168;SDS011;61379;59.732;30.468;2023-03-20T00:59:00;11.18;;;9.15;;
73168;SDS011;61379;59.732;30.468;2023-03-20T01:01:28;18.08;;;10.75;;
73168;SDS011;61379;59.732;30.468;2023-03-20T01:03:56;16.73;;;10.77;;
73168;SDS011;61379;59.732;30.468;2023-03-20T01:06:23;13.98;;;10.13;;
73168;SDS011;61379;59.732;30.468;2023-03-20T01:08:49;13.48;;;9.48;;
73168;SDS011;61379;59.732;30.468;2023-03-20T01:11:18;15.45;;;10.15;;
73168;SDS011;61379;59.732;30.468;2023-03-20T01:13:47;13.48;;;10.07;;
73168;SDS011;61379;59.732;30.468;2023-03-20T01:16:18;14.90;;;9.57;;
73168;SDS011;61379;59.732;30.468;2023-03-20T01:18:46;13.98;;;10.98;;
73168;SDS011;61379;59.732;30.468;2023-03-20T01:21:12;16.50;;;10.73;;
73168;SDS011;61379;59.732;30.468;2023-03-20T01:23:39;15.05;;;10.65;;
73168;SDS011;61379;59.732;30.468;2023-03-20T01:26:09;16.30;;;10.75;;
73168;SDS011;61379;59.732;30.468;2023-03-20T01:28:43;16.77;;;10.52;;
73168;SDS011;61379;59.732;30.468;2023-03-20T01:31:15;15.27;;;10.82;;
73168;SDS011;61379;59.732;30.468;2023-03-20T01:33:43;14.13;;;9.60;;
73168;SDS011;61379;59.732;30.468;2023-03-20T01:36:11;16.27;;;10.73;;
73168;SDS011;61379;59.732;30.468;2023-03-20T01:38:38;11.95;;;9.50;;
73168;SDS011;61379;59.732;30.468;2023-03-20T01:41:06;12.45;;;9.73;;
73168;SDS011;61379;59.732;30.468;2023-03-20T01:43:34;17.48;;;11.00;;
73168;SDS011;61379;59.732;30.468;2023-03-20T01:46:02;13.57;;;10.80;;
73168;SDS011;61379;59.732;30.468;2023-03-20T01:48:53;14.35;;;10.10;;
73168;SDS011;61379;59.732;30.468;2023-03-20T01:51:21;14.63;;;10.40;;
73168;SDS011;61379;59.732;30.468;2023-03-20T01:53:49;13.65;;;10.20;;
73168;SDS011;61379;59.732;30.468;2023-03-20T01:56:17;14.77;;;9.93;;
73168;SDS011;61379;59.732;30.468;2023-03-20T01:58:45;12.18;;;10.77;;
73168;SDS011;61379;59.732;30.468;2023-03-20T02:01:13;13.35;;;10.43;;
73168;SDS011;61379;59.732;30.468;2023-03-20T02:03:42;13.80;;;9.68;;
73168;SDS011;61379;59.732;30.468;2023-03-20T02:06:09;16.00;;;9.85;;
73168;SDS011;61379;59.732;30.468;2023-03-20T02:08:39;14.45;;;10.02;;
73168;SDS011;61379;59.732;30.468;2023-03-20T02:11:07;13.43;;;10.65;;
73168;SDS011;61379;59.732;30.468;2023-03-20T02:13:34;16.60;;;10.52;;
73168;SDS011;61379;59.732;30.468;2023-03-20T02:16:02;14.00;;;9.75;;
73168;SDS011;61379;59.732;30.468;2023-03-20T02:18:29;11.70;;;9.27;;
73168;SDS011;61379;59.732;30.468;2023-03-20T02:21:03;15.70;;;10.07;;
73168;SDS011;61379;59.732;30.468;2023-03-20T02:23:46;15.05;;;9.95;;
73168;SDS011;61379;59.732;30.468;2023-03-20T02:32:02;14.50;;;10.18;;
73168;SDS011;61379;59.732;30.468;2023-03-20T02:34:45;12.00;;;9.07;;
73168;SDS011;61379;59.732;30.468;2023-03-20T02:37:23;12.20;;;8.80;;
73168;SDS011;61379;59.732;30.468;2023-03-20T02:39:58;12.23;;;9.00;;
73168;SDS011;61379;59.732;30.468;2023-03-20T02:42:30;12.70;;;9.13;;
73168;SDS011;61379;59.732;30.468;2023-03-20T02:45:01;16.05;;;10.23;;
73168;SDS011;61379;59.732;30.468;2023-03-20T02:47:30;10.88;;;9.40;;
73168;SDS011;61379;59.732;30.468;2023-03-20T02:50:01;11.35;;;8.93;;
73168;SDS011;61379;59.732;30.468;2023-03-20T02:52:32;11.07;;;9.85;;
73168;SDS011;61379;59.732;30.468;2023-03-20T02:55:01;13.77;;;10.27;;
73168;SDS011;61379;59.732;30.468;2023-03-20T02:57:35;13.27;;;9.27;;
73168;SDS011;61379;59.732;30.468;2023-03-20T03:00:08;11.05;;;9.93;;
73168;SDS011;61379;59.732;30.468;2023-03-20T03:02:38;14.65;;;10.18;;
73168;SDS011;61379;59.732;30.468;2023-03-20T03:05:09;12.25;;;9.77;;
73168;SDS011;61379;59.732;30.468;2023-03-20T03:07:38;11.32;;;9.93;;
73168;SDS011;61379;59.732;30.468;2023-03-20T03:10:07;11.32;;;10.10;;
73168;SDS011;61379;59.732;30.468;2023-03-20T03:12:37;11.00;;;9.52;;
73168;SDS011;61379;59.732;30.468;2023-03-20T03:15:06;12.07;;;10.75;;
73168;SDS011;61379;59.732;30.468;2023-03-20T03:17:38;12.90;;;10.18;;
73168;SDS011;61379;59.732;30.468;2023-03-20T03:20:11;10.90;;;9.88;;
73168;SDS011;61379;59.732;30.468;2023-03-20T03:22:41;8.05;;;7.38;;
73168;SDS011;61379;59.732;30.468;2023-03-20T03:25:08;10.70;;;9.60;;
73168;SDS011;61379;59.732;30.468;2023-03-20T03:27:36;11.60;;;10.25;;
73168;SDS011;61379;59.732;30.468;2023-03-20T03:30:05;11.80;;;9.63;;
73168;SDS011;61379;59.732;30.468;2023-03-20T03:32:33;13.90;;;11.00;;
73168;SDS011;61379;59.732;30.468;2023-03-20T03:35:01;15.10;;;10.15;;
73168;SDS011;61379;59.732;30.468;2023-03-20T03:37:37;13.20;;;10.80;;
73168;SDS011;61379;59.732;30.468;2023-03-20T03:40:09;12.88;;;10.73;;
73168;SDS011;61379;59.732;30.468;2023-03-20T03:42:41;13.68;;;11.50;;
73168;SDS011;61379;59.732;30.468;2023-03-20T03:45:11;14.70;;;11.82;;
73168;SDS011;61379;59.732;30.468;2023-03-20T03:47:40;12.23;;;10.25;;
73168;SDS011;61379;59.732;30.468;2023-03-20T03:50:10;11.15;;;9.02;;
73168;SDS011;61379;59.732;30.468;2023-03-20T03:52:40;9.82;;;9.05;;
73168;SDS011;61379;59.732;30.468;2023-03-20T03:55:10;13.98;;;11.73;;
73168;SDS011;61379;59.732;30.468;2023-03-20T03:57:39;12.98;;;10.82;;
73168;SDS011;61379;59.732;30.468;2023-03-20T04:00:08;10.70;;;9.73;;
73168;SDS011;61379;59.732;30.468;2023-03-20T04:02:36;12.70;;;11.35;;
73168;SDS011;61379;59.732;30.468;2023-03-20T04:05:03;14.18;;;12.90;;
73168;SDS011;61379;59.732;30.468;2023-03-20T04:07:31;15.63;;;11.30;;
73168;SDS011;61379;59.732;30.468;2023-03-20T04:09:57;11.68;;;10.18;;
73168;SDS011;61379;59.732;30.468;2023-03-20T04:12:31;11.95;;;10.75;;
73168;SDS011;61379;59.732;30.468;2023-03-20T04:14:58;10.13;;;9.18;;
73168;SDS011;61379;59.732;30.468;2023-03-20T04:17:24;14.05;;;11.80;;
73168;SDS011;61379;59.732;30.468;2023-03-20T04:19:51;15.80;;;12.68;;
73168;SDS011;61379;59.732;30.468;2023-03-20T04:22:18;16.15;;;12.80;;
73168;SDS011;61379;59.732;30.468;2023-03-20T04:24:44;17.55;;;10.82;;
73168;SDS011;61379;59.732;30.468;2023-03-20T04:27:11;13.07;;;11.30;;
73168;SDS011;61379;59.732;30.468;2023-03-20T04:29:39;13.23;;;11.40;;
73168;SDS011;61379;59.732;30.468;2023-03-20T04:32:06;15.27;;;11.27;;
73168;SDS011;61379;59.732;30.468;2023-03-20T04:34:32;12.93;;;10.40;;
73168;SDS011;61379;59.732;30.468;2023-03-20T04:36:59;15.43;;;11.63;;
73168;SDS011;61379;59.732;30.468;2023-03-20T04:39:26;13.38;;;11.85;;
73168;SDS011;61379;59.732;30.468;2023-03-20T04:41:53;13.73;;;11.40;;
73168;SDS011;61379;59.732;30.468;2023-03-20T04:44:19;13.07;;;10.38;;
73168;SDS011;61379;59.732;30.468;2023-03-20T04:46:47;14.70;;;11.05;;
73168;SDS011;61379;59.732;30.468;2023-03-20T04:49:14;15.38;;;12.73;;
73168;SDS011;61379;59.732;30.468;2023-03-20T04:51:41;15.55;;;12.25;;
73168;SDS011;61379;59.732;30.468;2023-03-20T04:54:07;17.20;;;12.18;;
73168;SDS011;61379;59.732;30.468;2023-03-20T04:56:34;13.30;;;11.90;;
73168;SDS011;61379;59.732;30.468;2023-03-20T04:59:01;18.30;;;13.90;;
73168;SDS011;61379;59.732;30.468;2023-03-20T05:01:27;26.90;;;14.73;;
73168;SDS011;61379;59.732;30.468;2023-03-20T05:03:55;30.40;;;16.45;;
73168;SDS011;61379;59.732;30.468;2023-03-20T05:06:25;29.42;;;15.68;;
73168;SDS011;61379;59.732;30.468;2023-03-20T05:08:51;23.65;;;14.65;;
73168;SDS011;61379;59.732;30.468;2023-03-20T05:11:18;20.50;;;13.63;;
73168;SDS011;61379;59.732;30.468;2023-03-20T05:13:45;17.65;;;13.43;;
73168;SDS011;61379;59.732;30.468;2023-03-20T05:16:12;21.73;;;13.80;;
73168;SDS011;61379;59.732;30.468;2023-03-20T05:18:38;22.17;;;13.63;;
73168;SDS011;61379;59.732;30.468;2023-03-20T05:21:07;22.70;;;14.45;;
73168;SDS011;61379;59.732;30.468;2023-03-20T05:23:33;17.98;;;12.93;;
73168;SDS011;61379;59.732;30.468;2023-03-20T05:26:00;15.55;;;11.60;;
73168;SDS011;61379;59.732;30.468;2023-03-20T05:28:27;17.63;;;12.07;;
73168;SDS011;61379;59.732;30.468;2023-03-20T05:30:54;15.70;;;12.13;;
73168;SDS011;61379;59.732;30.468;2023-03-20T05:33:20;15.68;;;11.73;;
73168;SDS011;61379;59.732;30.468;2023-03-20T05:35:47;14.32;;;11.27;;
73168;SDS011;61379;59.732;30.468;2023-03-20T05:38:15;14.10;;;11.38;;
73168;SDS011;61379;59.732;30.468;2023-03-20T05:40:42;13.88;;;10.93;;
73168;SDS011;61379;59.732;30.468;2023-03-20T05:43:08;19.02;;;10.57;;
73168;SDS011;61379;59.732;30.468;2023-03-20T05:45:35;13.00;;;10.95;;
73168;SDS011;61379;59.732;30.468;2023-03-20T05:48:02;14.07;;;10.75;;
73168;SDS011;61379;59.732;30.468;2023-03-20T05:50:28;13.18;;;10.50;;
73168;SDS011;61379;59.732;30.468;2023-03-20T05:52:55;12.60;;;11.18;;
73168;SDS011;61379;59.732;30.468;2023-03-20T05:55:23;18.90;;;12.95;;
73168;SDS011;61379;59.732;30.468;2023-03-20T05:57:50;15.50;;;10.25;;
73168;SDS011;61379;59.732;30.468;2023-03-20T06:00:17;13.60;;;10.23;;
73168;SDS011;61379;59.732;30.468;2023-03-20T06:02:44;11.25;;;9.13;;
73168;SDS011;61379;59.732;30.468;2023-03-20T06:05:11;13.25;;;10.15;;
73168;SDS011;61379;59.732;30.468;2023-03-20T06:07:37;12.55;;;9.60;;
73168;SDS011;61379;59.732;30.468;2023-03-20T06:10:04;15.00;;;11.70;;
73168;SDS011;61379;59.732;30.468;2023-03-20T06:12:33;13.32;;;11.80;;
73168;SDS011;61379;59.732;30.468;2023-03-20T06:14:59;17.15;;;11.90;;
73168;SDS011;61379;59.732;30.468;2023-03-20T06:17:26;15.77;;;11.57;;
73168;SDS011;61379;59.732;30.468;2023-03-20T06:19:53;13.57;;;11.40;;
73168;SDS011;61379;59.732;30.468;2023-03-20T06:22:19;14.80;;;10.68;;
73168;SDS011;61379;59.732;30.468;2023-03-20T06:24:46;15.38;;;11.88;;
73168;SDS011;61379;59.732;30.468;2023-03-20T06:27:13;17.08;;;12.35;;
73168;SDS011;61379;59.732;30.468;2023-03-20T06:29:41;12.05;;;10.88;;
73168;SDS011;61379;59.732;30.468;2023-03-20T06:32:08;11.20;;;10.02;;
73168;SDS011;61379;59.732;30.468;2023-03-20T06:34:36;12.85;;;11.40;;
73168;SDS011;61379;59.732;30.468;2023-03-20T06:37:03;15.38;;;11.57;;
73168;SDS011;61379;59.732;30.468;2023-03-20T06:39:30;13.82;;;11.63;;
73168;SDS011;61379;59.732;30.468;2023-03-20T06:41:57;13.05;;;10.73;;
73168;SDS011;61379;59.732;30.468;2023-03-20T06:44:23;18.38;;;12.48;;
73168;SDS011;61379;59.732;30.468;2023-03-20T06:46:52;19.08;;;11.30;;
73168;SDS011;61379;59.732;30.468;2023-03-20T06:49:19;16.02;;;11.80;;
73168;SDS011;61379;59.732;30.468;2023-03-20T06:51:45;17.60;;;13.43;;
73168;SDS011;61379;59.732;30.468;2023-03-20T06:54:13;16.95;;;12.38;;
73168;SDS011;61379;59.732;30.468;2023-03-20T06:56:39;17.50;;;13.15;;
73168;SDS011;61379;59.732;30.468;2023-03-20T06:59:06;17.48;;;12.63;;
73168;SDS011;61379;59.732;30.468;2023-03-20T07:01:33;27.92;;;15.00;;
73168;SDS011;61379;59.732;30.468;2023-03-20T07:04:02;19.63;;;13.88;;
73168;SDS011;61379;59.732;30.468;2023-03-20T07:06:29;19.15;;;13.52;;
73168;SDS011;61379;59.732;30.468;2023-03-20T07:08:56;25.30;;;13.98;;
73168;SDS011;61379;59.732;30.468;2023-03-20T07:11:23;20.13;;;13.35;;
73168;SDS011;61379;59.732;30.468;2023-03-20T07:13:49;21.45;;;13.23;;
73168;SDS011;61379;59.732;30.468;2023-03-20T07:16:16;19.10;;;13.25;;
73168;SDS011;61379;59.732;30.468;2023-03-20T07:18:43;18.33;;;12.95;;
73168;SDS011;61379;59.732;30.468;2023-03-20T07:21:12;18.10;;;13.75;;
73168;SDS011;61379;59.732;30.468;2023-03-20T07:23:41;17.85;;;13.13;;
73168;SDS011;61379;59.732;30.468;2023-03-20T07:26:08;17.23;;;13.05;;
73168;SDS011;61379;59.732;30.468;2023-03-20T07:28:35;14.38;;;12.77;;
73168;SDS011;61379;59.732;30.468;2023-03-20T07:31:02;17.60;;;12.65;;
73168;SDS011;61379;59.732;30.468;2023-03-20T07:33:28;17.00;;;12.55;;
73168;SDS011;61379;59.732;30.468;2023-03-20T07:35:55;14.38;;;11.43;;
73168;SDS011;61379;59.732;30.468;2023-03-20T07:38:23;18.00;;;12.60;;
73168;SDS011;61379;59.732;30.468;2023-03-20T07:40:52;17.17;;;12.00;;
73168;SDS011;61379;59.732;30.468;2023-03-20T07:43:18;14.45;;;10.70;;
73168;SDS011;61379;59.732;30.468;2023-03-20T07:45:45;19.02;;;11.98;;
73168;SDS011;61379;59.732;30.468;2023-03-20T07:48:12;17.67;;;11.45;;
73168;SDS011;61379;59.732;30.468;2023-03-20T07:50:38;16.88;;;12.45;;
73168;SDS011;61379;59.732;30.468;2023-03-20T07:53:05;17.77;;;11.77;;
73168;SDS011;61379;59.732;30.468;2023-03-20T07:55:33;14.25;;;11.10;;
73168;SDS011;61379;59.732;30.468;2023-03-20T07:58:00;17.58;;;10.73;;
73168;SDS011;61379;59.732;30.468;2023-03-20T08:00:27;13.95;;;10.82;;
73168;SDS011;61379;59.732;30.468;2023-03-20T08:02:54;14.80;;;10.52;;
73168;SDS011;61379;59.732;30.468;2023-03-20T08:05:22;16.98;;;11.18;;
73168;SDS011;61379;59.732;30.468;2023-03-20T08:07:49;17.48;;;11.93;;
73168;SDS011;61379;59.732;30.468;2023-03-20T08:10:15;15.80;;;11.05;;
73168;SDS011;61379;59.732;30.468;2023-03-20T08:12:44;13.88;;;10.85;;
73168;SDS011;61379;59.732;30.468;2023-03-20T08:15:10;13.65;;;10.57;;
73168;SDS011;61379;59.732;30.468;2023-03-20T08:17:37;15.00;;;10.68;;
73168;SDS011;61379;59.732;30.468;2023-03-20T08:20:04;17.85;;;12.13;;
73168;SDS011;61379;59.732;30.468;2023-03-20T08:22:31;15.52;;;10.65;;
73168;SDS011;61379;59.732;30.468;2023-03-20T08:24:58;14.80;;;11.15;;
73168;SDS011;61379;59.732;30.468;2023-03-20T08:27:25;15.00;;;12.18;;
73168;SDS011;61379;59.732;30.468;2023-03-20T08:29:53;15.23;;;11.48;;
73168;SDS011;61379;59.732;30.468;2023-03-20T08:32:19;13.50;;;10.57;;
73168;SDS011;61379;59.732;30.468;2023-03-20T08:34:46;11.35;;;10.25;;
73168;SDS011;61379;59.732;30.468;2023-03-20T08:37:13;14.88;;;10.77;;
73168;SDS011;61379;59.732;30.468;2023-03-20T08:39:40;13.25;;;10.80;;
73168;SDS011;61379;59.732;30.468;2023-03-20T08:42:06;13.70;;;11.23;;
73168;SDS011;61379;59.732;30.468;2023-03-20T08:44:33;15.18;;;12.13;;
73168;SDS011;61379;59.732;30.468;2023-03-20T08:47:01;17.27;;;13.13;;
73168;SDS011;61379;59.732;30.468;2023-03-20T08:49:29;14.43;;;10.93;;
73168;SDS011;61379;59.732;30.468;2023-03-20T08:51:56;13.20;;;11.30;;
73168;SDS011;61379;59.732;30.468;2023-03-20T08:54:23;12.63;;;10.90;;
73168;SDS011;61379;59.732;30.468;2023-03-20T08:56:49;14.98;;;12.20;;
73168;SDS011;61379;59.732;30.468;2023-03-20T08:59:16;12.38;;;10.80;;
73168;SDS011;61379;59.732;30.468;2023-03-20T09:01:43;19.60;;;13.45;;
73168;SDS011;61379;59.732;30.468;2023-03-20T09:04:11;19.65;;;14.00;;
73168;SDS011;61379;59.732;30.468;2023-03-20T09:06:38;12.90;;;11.60;;
73168;SDS011;61379;59.732;30.468;2023-03-20T09:09:05;12.48;;;11.20;;
73168;SDS011;61379;59.732;30.468;2023-03-20T09:11:32;14.65;;;12.15;;
73168;SDS011;61379;59.732;30.468;2023-03-20T09:13:59;15.10;;;11.93;;
73168;SDS011;61379;59.732;30.468;2023-03-20T09:16:26;12.85;;;11.18;;
73168;SDS011;61379;59.732;30.468;2023-03-20T09:18:53;14.40;;;11.13;;
73168;SDS011;61379;59.732;30.468;2023-03-20T09:21:21;13.05;;;11.00;;
73168;SDS011;61379;59.732;30.468;2023-03-20T09:23:48;14.07;;;11.90;;
73168;SDS011;61379;59.732;30.468;2023-03-20T09:26:15;13.40;;;12.18;;
73168;SDS011;61379;59.732;30.468;2023-03-20T09:28:41;12.02;;;10.65;;
73168;SDS011;61379;59.732;30.468;2023-03-20T09:31:08;12.75;;;11.43;;
73168;SDS011;61379;59.732;30.468;2023-03-20T09:33:36;14.70;;;13.25;;
73168;SDS011;61379;59.732;30.468;2023-03-20T09:36:03;14.60;;;13.07;;
73168;SDS011;61379;59.732;30.468;2023-03-20T09:38:31;14.75;;;12.75;;
73168;SDS011;61379;59.732;30.468;2023-03-20T09:40:58;16.27;;;12.40;;
73168;SDS011;61379;59.732;30.468;2023-03-20T09:43:32;13.18;;;11.82;;
73168;SDS011;61379;59.732;30.468;2023-03-20T09:46:01;17.13;;;12.30;;
73168;SDS011;61379;59.732;30.468;2023-03-20T09:48:32;15.13;;;12.23;;
73168;SDS011;61379;59.732;30.468;2023-03-20T09:51:01;13.70;;;11.82;;
73168;SDS011;61379;59.732;30.468;2023-03-20T09:53:32;15.50;;;12.95;;
73168;SDS011;61379;59.732;30.468;2023-03-20T09:56:01;13.48;;;11.98;;
73168;SDS011;61379;59.732;30.468;2023-03-20T09:58:29;14.82;;;12.90;;
73168;SDS011;61379;59.732;30.468;2023-03-20T10:00:58;15.90;;;14.25;;
73168;SDS011;61379;59.732;30.468;2023-03-20T10:03:27;14.05;;;12.60;;
73168;SDS011;61379;59.732;30.468;2023-03-20T10:05:55;13.95;;;12.02;;
73168;SDS011;61379;59.732;30.468;2023-03-20T10:08:24;14.23;;;12.55;;
73168;SDS011;61379;59.732;30.468;2023-03-20T10:10:56;15.60;;;12.73;;
73168;SDS011;61379;59.732;30.468;2023-03-20T10:13:29;15.00;;;13.38;;
73168;SDS011;61379;59.732;30.468;2023-03-20T10:16:02;13.85;;;12.02;;
73168;SDS011;61379;59.732;30.468;2023-03-20T10:18:32;14.95;;;13.48;;
73168;SDS011;61379;59.732;30.468;2023-03-20T10:21:00;14.73;;;12.98;;
73168;SDS011;61379;59.732;30.468;2023-03-20T10:23:32;14.32;;;12.88;;
73168;SDS011;61379;59.732;30.468;2023-03-20T10:26:04;18.83;;;14.68;;
73168;SDS011;61379;59.732;30.468;2023-03-20T10:28:33;15.55;;;13.18;;
73168;SDS011;61379;59.732;30.468;2023-03-20T10:31:04;18.17;;;13.85;;
73168;SDS011;61379;59.732;30.468;2023-03-20T10:33:40;14.77;;;12.88;;
73168;SDS011;61379;59.732;30.468;2023-03-20T10:36:14;15.98;;;14.27;;
73168;SDS011;61379;59.732;30.468;2023-03-20T10:38:46;17.50;;;14.30;;
73168;SDS011;61379;59.732;30.468;2023-03-20T10:41:18;14.38;;;12.88;;
73168;SDS011;61379;59.732;30.468;2023-03-20T10:43:46;16.75;;;13.52;;
73168;SDS011;61379;59.732;30.468;2023-03-20T10:46:14;13.07;;;11.73;;
73168;SDS011;61379;59.732;30.468;2023-03-20T10:48:43;17.30;;;12.90;;
73168;SDS011;61379;59.732;30.468;2023-03-20T10:51:12;15.88;;;14.30;;
73168;SDS011;61379;59.732;30.468;2023-03-20T10:53:41;16.35;;;13.50;;
73168;SDS011;61379;59.732;30.468;2023-03-20T10:56:12;17.60;;;15.38;;
73168;SDS011;61379;59.732;30.468;2023-03-20T10:58:42;18.17;;;14.35;;
73168;SDS011;61379;59.732;30.468;2023-03-20T11:01:10;15.00;;;12.82;;
73168;SDS011;61379;59.732;30.468;2023-03-20T11:03:36;15.93;;;13.30;;
73168;SDS011;61379;59.732;30.468;2023-03-20T11:06:06;16.10;;;13.98;;
73168;SDS011;61379;59.732;30.468;2023-03-20T11:08:34;17.42;;;14.27;;
73168;SDS011;61379;59.732;30.468;2023-03-20T11:11:02;17.52;;;14.30;;
73168;SDS011;61379;59.732;30.468;2023-03-20T11:13:30;15.73;;;13.35;;
73168;SDS011;61379;59.732;30.468;2023-03-20T11:16:08;16.65;;;13.25;;
73168;SDS011;61379;59.732;30.468;2023-03-20T11:18:35;17.00;;;14.15;;
73168;SDS011;61379;59.732;30.468;2023-03-20T11:21:02;17.00;;;13.18;;
73168;SDS011;61379;59.732;30.468;2023-03-20T11:23:29;14.30;;;12.43;;
73168;SDS011;61379;59.732;30.468;2023-03-20T11:28:26;19.08;;;14.05;;
73168;SDS011;61379;59.732;30.468;2023-03-20T11:30:58;15.52;;;12.27;;
73168;SDS011;61379;59.732;30.468;2023-03-20T11:33:27;16.90;;;14.23;;
73168;SDS011;61379;59.732;30.468;2023-03-20T11:35:54;15.10;;;13.40;;
73168;SDS011;61379;59.732;30.468;2023-03-20T11:38:22;14.50;;;12.93;;
73168;SDS011;61379;59.732;30.468;2023-03-20T11:40:49;14.32;;;12.10;;
73168;SDS011;61379;59.732;30.468;2023-03-20T11:43:17;16.80;;;11.73;;
73168;SDS011;61379;59.732;30.468;2023-03-20T11:45:45;13.75;;;12.23;;
73168;SDS011;61379;59.732;30.468;2023-03-20T11:48:17;13.93;;;11.90;;
73168;SDS011;61379;59.732;30.468;2023-03-20T11:50:46;13.32;;;11.75;;
73168;SDS011;61379;59.732;30.468;2023-03-20T11:53:22;15.38;;;13.30;;
73168;SDS011;61379;59.732;30.468;2023-03-20T11:56:01;13.25;;;11.90;;
73168;SDS011;61379;59.732;30.468;2023-03-20T11:58:29;13.52;;;12.23;;
73168;SDS011;61379;59.732;30.468;2023-03-20T12:00:55;16.08;;;12.57;;
73168;SDS011;61379;59.732;30.468;2023-03-20T12:03:33;14.20;;;12.43;;
73168;SDS011;61379;59.732;30.468;2023-03-20T12:06:04;12.60;;;11.00;;
73168;SDS011;61379;59.732;30.468;2023-03-20T12:08:31;14.68;;;11.65;;
73168;SDS011;61379;59.732;30.468;2023-03-20T12:11:00;16.58;;;13.63;;
73168;SDS011;61379;59.732;30.468;2023-03-20T12:13:31;17.42;;;12.55;;
73168;SDS011;61379;59.732;30.468;2023-03-20T12:16:00;14.57;;;11.82;;
73168;SDS011;61379;59.732;30.468;2023-03-20T12:18:28;13.90;;;11.65;;
73168;SDS011;61379;59.732;30.468;2023-03-20T12:20:59;13.60;;;11.02;;
73168;SDS011;61379;59.732;30.468;2023-03-20T12:23:30;15.85;;;11.43;;
73168;SDS011;61379;59.732;30.468;2023-03-20T12:25:58;14.55;;;10.88;;
73168;SDS011;61379;59.732;30.468;2023-03-20T12:28:27;13.45;;;11.90;;
73168;SDS011;61379;59.732;30.468;2023-03-20T12:33:25;14.68;;;11.55;;
73168;SDS011;61379;59.732;30.468;2023-03-20T12:35:55;17.73;;;13.20;;
73168;SDS011;61379;59.732;30.468;2023-03-20T12:38:25;14.73;;;11.25;;
73168;SDS011;61379;59.732;30.468;2023-03-20T12:40:55;13.38;;;11.85;;
73168;SDS011;61379;59.732;30.468;2023-03-20T12:43:24;14.45;;;10.95;;
73168;SDS011;61379;59.732;30.468;2023-03-20T12:45:51;13.95;;;11.63;;
73168;SDS011;61379;59.732;30.468;2023-03-20T12:48:23;17.60;;;12.13;;
73168;SDS011;61379;59.732;30.468;2023-03-20T12:50:56;15.15;;;11.77;;
73168;SDS011;61379;59.732;30.468;2023-03-20T12:53:33;13.70;;;11.82;;
73168;SDS011;61379;59.732;30.468;2023-03-20T12:56:10;15.32;;;12.35;;
73168;SDS011;61379;59.732;30.468;2023-03-20T12:58:40;14.82;;;11.98;;
73168;SDS011;61379;59.732;30.468;2023-03-20T13:01:10;15.13;;;12.50;;
73168;SDS011;61379;59.732;30.468;2023-03-20T13:03:51;15.00;;;11.82;;
73168;SDS011;61379;59.732;30.468;2023-03-20T13:06:24;13.77;;;12.05;;
73168;SDS011;61379;59.732;30.468;2023-03-20T13:11:42;15.23;;;12.35;;
73168;SDS011;61379;59.732;30.468;2023-03-20T13:14:12;16.58;;;11.55;;
73168;SDS011;61379;59.732;30.468;2023-03-20T13:16:43;16.27;;;12.57;;
73168;SDS011;61379;59.732;30.468;2023-03-20T13:19:13;13.25;;;11.85;;
73168;SDS011;61379;59.732;30.468;2023-03-20T13:21:44;14.00;;;12.05;;
73168;SDS011;61379;59.732;30.468;2023-03-20T13:24:19;17.60;;;13.43;;
73168;SDS011;61379;59.732;30.468;2023-03-20T13:26:51;18.42;;;13.75;;
73168;SDS011;61379;59.732;30.468;2023-03-20T13:29:22;16.13;;;12.63;;
73168;SDS011;61379;59.732;30.468;2023-03-20T13:31:53;14.65;;;11.88;;
73168;SDS011;61379;59.732;30.468;2023-03-20T13:34:26;12.05;;;10.75;;
73168;SDS011;61379;59.732;30.468;2023-03-20T13:37:00;13.55;;;11.43;;
73168;SDS011;61379;59.732;30.468;2023-03-20T13:39:29;12.88;;;11.15;;
73168;SDS011;61379;59.732;30.468;2023-03-20T13:41:59;15.77;;;12.43;;
73168;SDS011;61379;59.732;30.468;2023-03-20T13:44:27;13.63;;;11.50;;
73168;SDS011;61379;59.732;30.468;2023-03-20T13:46:55;14.20;;;10.95;;
73168;SDS011;61379;59.732;30.468;2023-03-20T13:49:23;14.98;;;10.82;;
73168;SDS011;61379;59.732;30.468;2023-03-20T13:51:53;18.38;;;11.93;;
73168;SDS011;61379;59.732;30.468;2023-03-20T13:54:27;16.02;;;11.18;;
73168;SDS011;61379;59.732;30.468;2023-03-20T13:56:58;15.02;;;11.00;;
73168;SDS011;61379;59.732;30.468;2023-03-20T13:59:44;14.77;;;11.00;;
73168;SDS011;61379;59.732;30.468;2023-03-20T14:02:18;13.30;;;11.07;;
73168;SDS011;61379;59.732;30.468;2023-03-20T14:04:45;16.27;;;12.75;;
73168;SDS011;61379;59.732;30.468;2023-03-20T14:07:25;12.48;;;10.90;;
73168;SDS011;61379;59.732;30.468;2023-03-20T14:09:52;15.88;;;9.88;;
73168;SDS011;61379;59.732;30.468;2023-03-20T14:12:19;16.15;;;11.75;;
73168;SDS011;61379;59.732;30.468;2023-03-20T14:14:51;15.20;;;11.68;;
73168;SDS011;61379;59.732;30.468;2023-03-20T14:17:19;14.10;;;12.60;;
73168;SDS011;61379;59.732;30.468;2023-03-20T14:19:46;15.90;;;12.10;;
73168;SDS011;61379;59.732;30.468;2023-03-20T14:22:15;15.40;;;11.77;;
73168;SDS011;61379;59.732;30.468;2023-03-20T14:24:44;19.95;;;12.20;;
73168;SDS011;61379;59.732;30.468;2023-03-20T14:27:14;16.75;;;11.88;;
73168;SDS011;61379;59.732;30.468;2023-03-20T14:29:42;14.02;;;11.27;;
73168;SDS011;61379;59.732;30.468;2023-03-20T14:34:59;16.23;;;12.35;;
73168;SDS011;61379;59.732;30.468;2023-03-20T14:37:27;15.90;;;11.82;;